sensor_id;sensor_type;location;lat;lon;timestamp;pressure;altitude;pressure_sealevel;temperature;humidity
12077;BME280;12420;42.676;23.262;2023-03-16T00:01:17;93614.16;;;3.15;100.00
12077;BME280;12420;42.676;23.262;2023-03-16T00:03:44;93697.88;;;3.35;100.00
12077;BME280;12420;42.676;23.262;2023-03-16T00:06:11;93673.63;;;3.67;100.00
12077;BME280;12420;42.676;23.262;2023-03-16T00:08:37;93623.34;;;3.18;100.00
12077;BME280;12420;42.676;23.262;2023-03-16T00:11:04;93736.38;;;4.07;100.00
12077;BME280;12420;42.676;23.262;2023-03-16T00:13:31;93749.78;;;4.16;100.00
12077;BME280;12420;42.676;23.262;2023-03-16T00:16:01;93724.06;;;3.83;100.00
12077;BME280;12420;42.676;23.262;2023-03-16T00:18:29;93743.19;;;3.89;100.00
12077;BME280;12420;42.676;23.262;2023-03-16T00:21:03;93644.69;;;3.31;100.00
12077;BME280;12420;42.676;23.262;2023-03-16T00:23:31;93666.25;;;3.45;100.00
12077;BME280;12420;42.676;23.262;2023-03-16T00:26:01;93748.88;;;3.97;100.00
12077;BME280;12420;42.676;23.262;2023-03-16T00:28:29;93754.63;;;3.93;100.00
12077;BME280;12420;42.676;23.262;2023-03-16T00:31:00;93705.03;;;3.55;100.00
12077;BME280;12420;42.676;23.262;2023-03-16T00:33:27;93753.44;;;3.77;100.00
12077;BME280;12420;42.676;23.262;2023-03-16T00:35:54;93737.56;;;3.70;100.00
12077;BME280;12420;42.676;23.262;2023-03-16T00:38:28;93752.75;;;3.60;100.00
12077;BME280;12420;42.676;23.262;2023-03-16T00:40:55;93733.19;;;3.33;100.00
12077;BME280;12420;42.676;23.262;2023-03-16T00:43:22;93750.53;;;3.53;100.00
12077;BME280;12420;42.676;23.262;2023-03-16T00:45:57;93789.81;;;3.61;100.00
12077;BME280;12420;42.676;23.262;2023-03-16T00:48:25;93722.06;;;3.09;100.00
12077;BME280;12420;42.676;23.262;2023-03-16T00:50:52;93809.00;;;3.38;100.00
12077;BME280;12420;42.676;23.262;2023-03-16T00:53:19;93725.81;;;3.06;100.00
12077;BME280;12420;42.676;23.262;2023-03-16T00:55:46;93663.25;;;2.63;100.00
12077;BME280;12420;42.676;23.262;2023-03-16T00:58:13;93762.28;;;3.36;100.00
12077;BME280;12420;42.676;23.262;2023-03-16T01:00:40;93761.53;;;3.41;100.00
12077;BME280;12420;42.676;23.262;2023-03-16T01:03:07;93686.53;;;2.97;100.00
12077;BME280;12420;42.676;23.262;2023-03-16T01:05:38;93767.91;;;3.72;100.00
12077;BME280;12420;42.676;23.262;2023-03-16T01:08:05;93765.84;;;3.89;100.00
12077;BME280;12420;42.676;23.262;2023-03-16T01:10:33;93760.59;;;3.97;100.00
12077;BME280;12420;42.676;23.262;2023-03-16T01:13:00;93772.81;;;3.90;100.00
12077;BME280;12420;42.676;23.262;2023-03-16T01:15:28;93763.97;;;4.20;100.00
12077;BME280;12420;42.676;23.262;2023-03-16T01:17:55;93790.03;;;4.32;100.00
12077;BME280;12420;42.676;23.262;2023-03-16T01:20:22;93774.56;;;4.41;100.00
12077;BME280;12420;42.676;23.262;2023-03-16T01:22:50;93770.56;;;4.42;100.00
12077;BME280;12420;42.676;23.262;2023-03-16T01:25:17;93776.72;;;4.53;100.00
12077;BME280;12420;42.676;23.262;2023-03-16T01:27:45;93782.25;;;4.42;100.00
12077;BME280;12420;42.676;23.262;2023-03-16T01:30:12;93769.03;;;4.46;100.00
12077;BME280;12420;42.676;23.262;2023-03-16T01:32:40;93758.69;;;4.28;100.00
12077;BME280;12420;42.676;23.262;2023-03-16T01:35:07;93659.28;;;3.50;100.00
12077;BME280;12420;42.676;23.262;2023-03-16T01:37:34;93784.25;;;3.95;100.00
12077;BME280;12420;42.676;23.262;2023-03-16T01:40:03;93719.75;;;3.35;100.00
12077;BME280;12420;42.676;23.262;2023-03-16T01:42:31;93780.53;;;3.92;100.00
12077;BME280;12420;42.676;23.262;2023-03-16T01:48:06;93787.03;;;3.78;100.00
12077;BME280;12420;42.676;23.262;2023-03-16T01:50:34;93797.25;;;3.72;100.00
12077;BME280;12420;42.676;23.262;2023-03-16T01:53:00;93794.31;;;3.53;100.00
12077;BME280;12420;42.676;23.262;2023-03-16T01:55:29;93798.78;;;3.56;100.00
12077;BME280;12420;42.676;23.262;2023-03-16T01:57:56;93760.09;;;3.07;100.00
12077;BME280;12420;42.676;23.262;2023-03-16T02:00:23;93801.09;;;3.23;100.00
12077;BME280;12420;42.676;23.262;2023-03-16T02:02:58;93795.63;;;2.90;100.00
12077;BME280;12420;42.676;23.262;2023-03-16T02:05:32;93756.38;;;2.53;100.00
12077;BME280;12420;42.676;23.262;2023-03-16T02:08:01;93804.31;;;2.88;100.00
12077;BME280;12420;42.676;23.262;2023-03-16T02:10:31;93808.00;;;2.51;100.00
12077;BME280;12420;42.676;23.262;2023-03-16T02:12:59;93713.13;;;2.24;100.00
12077;BME280;12420;42.676;23.262;2023-03-16T02:15:26;93791.38;;;2.72;100.00
12077;BME280;12420;42.676;23.262;2023-03-16T02:17:52;93812.50;;;2.77;100.00
12077;BME280;12420;42.676;23.262;2023-03-16T02:20:31;93662.63;;;1.46;100.00
12077;BME280;12420;42.676;23.262;2023-03-16T02:22:59;93822.66;;;2.59;100.00
12077;BME280;12420;42.676;23.262;2023-03-16T02:25:34;93823.94;;;2.70;100.00
12077;BME280;12420;42.676;23.262;2023-03-16T02:28:11;93772.47;;;2.29;100.00
12077;BME280;12420;42.676;23.262;2023-03-16T02:30:42;93818.97;;;2.68;100.00
12077;BME280;12420;42.676;23.262;2023-03-16T02:33:09;93798.38;;;2.73;100.00
12077;BME280;12420;42.676;23.262;2023-03-16T02:35:37;93693.19;;;1.72;100.00
12077;BME280;12420;42.676;23.262;2023-03-16T02:38:04;93771.44;;;2.09;100.00
12077;BME280;12420;42.676;23.262;2023-03-16T02:40:32;93827.94;;;2.80;100.00
12077;BME280;12420;42.676;23.262;2023-03-16T02:43:06;93831.41;;;2.92;100.00
12077;BME280;12420;42.676;23.262;2023-03-16T02:45:38;93768.25;;;2.28;100.00
12077;BME280;12420;42.676;23.262;2023-03-16T02:48:10;93697.97;;;1.94;100.00
12077;BME280;12420;42.676;23.262;2023-03-16T02:50:46;93813.50;;;3.02;100.00
12077;BME280;12420;42.676;23.262;2023-03-16T02:53:15;93829.41;;;3.09;100.00
12077;BME280;12420;42.676;23.262;2023-03-16T02:55:42;93764.06;;;2.55;100.00
12077;BME280;12420;42.676;23.262;2023-03-16T02:58:09;93806.06;;;3.14;100.00
12077;BME280;12420;42.676;23.262;2023-03-16T03:00:36;93831.66;;;3.16;100.00
12077;BME280;12420;42.676;23.262;2023-03-16T03:03:04;93829.16;;;3.24;100.00
12077;BME280;12420;42.676;23.262;2023-03-16T03:05:34;93841.59;;;3.36;100.00
12077;BME280;12420;42.676;23.262;2023-03-16T03:08:01;93828.44;;;3.23;100.00
12077;BME280;12420;42.676;23.262;2023-03-16T03:10:28;93856.50;;;3.30;100.00
12077;BME280;12420;42.676;23.262;2023-03-16T03:12:55;93859.00;;;3.33;100.00
12077;BME280;12420;42.676;23.262;2023-03-16T03:15:22;93865.94;;;3.17;100.00
12077;BME280;12420;42.676;23.262;2023-03-16T03:17:49;93865.94;;;2.89;100.00
12077;BME280;12420;42.676;23.262;2023-03-16T03:20:19;93809.50;;;2.52;100.00
12077;BME280;12420;42.676;23.262;2023-03-16T03:22:48;93800.53;;;2.46;100.00
12077;BME280;12420;42.676;23.262;2023-03-16T03:25:17;93877.63;;;3.12;100.00
12077;BME280;12420;42.676;23.262;2023-03-16T03:27:45;93871.69;;;3.08;100.00
12077;BME280;12420;42.676;23.262;2023-03-16T03:30:14;93891.00;;;2.82;100.00
12077;BME280;12420;42.676;23.262;2023-03-16T03:32:43;93879.59;;;2.89;100.00
12077;BME280;12420;42.676;23.262;2023-03-16T03:35:11;93844.28;;;2.63;100.00
12077;BME280;12420;42.676;23.262;2023-03-16T03:37:39;93887.06;;;2.89;100.00
12077;BME280;12420;42.676;23.262;2023-03-16T03:40:12;93753.97;;;1.79;100.00
12077;BME280;12420;42.676;23.262;2023-03-16T03:42:41;93885.00;;;2.61;100.00
12077;BME280;12420;42.676;23.262;2023-03-16T03:45:09;93885.06;;;2.72;100.00
12077;BME280;12420;42.676;23.262;2023-03-16T03:47:37;93866.09;;;2.41;100.00
12077;BME280;12420;42.676;23.262;2023-03-16T03:50:05;93884.66;;;2.31;100.00
12077;BME280;12420;42.676;23.262;2023-03-16T03:52:33;93876.00;;;2.32;100.00
12077;BME280;12420;42.676;23.262;2023-03-16T03:55:00;93859.38;;;2.36;100.00
12077;BME280;12420;42.676;23.262;2023-03-16T03:57:28;93799.25;;;1.59;100.00
12077;BME280;12420;42.676;23.262;2023-03-16T03:59:55;93917.28;;;2.57;100.00
12077;BME280;12420;42.676;23.262;2023-03-16T04:02:22;93912.88;;;2.76;100.00
12077;BME280;12420;42.676;23.262;2023-03-16T04:04:49;93904.91;;;2.67;100.00
12077;BME280;12420;42.676;23.262;2023-03-16T04:07:16;93905.66;;;2.68;100.00
12077;BME280;12420;42.676;23.262;2023-03-16T04:09:43;93915.38;;;2.86;100.00
12077;BME280;12420;42.676;23.262;2023-03-16T04:12:10;93914.91;;;2.98;100.00
12077;BME280;12420;42.676;23.262;2023-03-16T04:14:38;93910.69;;;3.09;100.00
12077;BME280;12420;42.676;23.262;2023-03-16T04:17:05;93908.44;;;3.01;100.00
12077;BME280;12420;42.676;23.262;2023-03-16T04:19:34;93917.41;;;3.19;100.00
12077;BME280;12420;42.676;23.262;2023-03-16T04:22:01;93913.19;;;3.29;100.00
12077;BME280;12420;42.676;23.262;2023-03-16T04:24:28;93925.38;;;3.39;100.00
12077;BME280;12420;42.676;23.262;2023-03-16T04:26:58;93898.75;;;3.23;100.00
12077;BME280;12420;42.676;23.262;2023-03-16T04:29:27;93902.84;;;2.51;100.00
12077;BME280;12420;42.676;23.262;2023-03-16T04:31:56;93924.38;;;3.03;100.00
12077;BME280;12420;42.676;23.262;2023-03-16T04:34:22;93922.78;;;2.68;100.00
12077;BME280;12420;42.676;23.262;2023-03-16T04:36:50;93875.09;;;2.69;100.00
12077;BME280;12420;42.676;23.262;2023-03-16T04:39:17;93938.03;;;3.09;100.00
12077;BME280;12420;42.676;23.262;2023-03-16T04:41:44;93883.06;;;2.84;100.00
12077;BME280;12420;42.676;23.262;2023-03-16T04:44:11;93954.22;;;3.29;100.00
12077;BME280;12420;42.676;23.262;2023-03-16T04:46:39;93941.28;;;3.24;100.00
12077;BME280;12420;42.676;23.262;2023-03-16T04:49:07;93958.44;;;3.19;100.00
12077;BME280;12420;42.676;23.262;2023-03-16T04:51:34;93968.63;;;3.24;100.00
12077;BME280;12420;42.676;23.262;2023-03-16T04:54:02;93941.25;;;3.07;100.00
12077;BME280;12420;42.676;23.262;2023-03-16T04:56:35;93907.50;;;2.28;100.00
12077;BME280;12420;42.676;23.262;2023-03-16T04:59:06;93997.66;;;3.04;100.00
12077;BME280;12420;42.676;23.262;2023-03-16T05:01:33;93922.06;;;2.79;100.00
12077;BME280;12420;42.676;23.262;2023-03-16T05:03:59;93973.25;;;2.90;100.00
12077;BME280;12420;42.676;23.262;2023-03-16T05:06:28;93894.91;;;2.47;100.00
12077;BME280;12420;42.676;23.262;2023-03-16T05:08:58;93980.25;;;2.96;100.00
12077;BME280;12420;42.676;23.262;2023-03-16T05:11:24;93981.78;;;3.09;100.00
12077;BME280;12420;42.676;23.262;2023-03-16T05:13:51;93993.25;;;3.18;100.00
12077;BME280;12420;42.676;23.262;2023-03-16T05:16:18;93961.66;;;3.06;100.00
12077;BME280;12420;42.676;23.262;2023-03-16T05:18:45;93974.06;;;3.01;100.00
12077;BME280;12420;42.676;23.262;2023-03-16T05:21:11;93990.47;;;3.01;100.00
12077;BME280;12420;42.676;23.262;2023-03-16T05:23:40;93999.66;;;3.04;100.00
12077;BME280;12420;42.676;23.262;2023-03-16T05:26:06;94004.75;;;2.68;100.00
12077;BME280;12420;42.676;23.262;2023-03-16T05:28:33;93995.44;;;3.03;100.00
12077;BME280;12420;42.676;23.262;2023-03-16T05:31:00;93995.16;;;2.95;100.00
12077;BME280;12420;42.676;23.262;2023-03-16T05:33:28;93939.84;;;2.46;100.00
12077;BME280;12420;42.676;23.262;2023-03-16T05:35:55;94005.84;;;2.88;100.00
12077;BME280;12420;42.676;23.262;2023-03-16T05:38:23;94006.31;;;2.86;100.00
12077;BME280;12420;42.676;23.262;2023-03-16T05:40:51;93991.66;;;2.83;100.00
12077;BME280;12420;42.676;23.262;2023-03-16T05:43:19;93998.84;;;2.81;100.00
12077;BME280;12420;42.676;23.262;2023-03-16T05:45:46;94026.97;;;2.98;100.00
12077;BME280;12420;42.676;23.262;2023-03-16T05:48:13;94026.38;;;2.72;100.00
12077;BME280;12420;42.676;23.262;2023-03-16T05:50:41;93993.44;;;2.38;100.00
12077;BME280;12420;42.676;23.262;2023-03-16T05:53:08;94025.22;;;2.41;100.00
12077;BME280;12420;42.676;23.262;2023-03-16T05:55:34;94004.41;;;2.49;100.00
12077;BME280;12420;42.676;23.262;2023-03-16T05:58:03;94083.38;;;2.47;100.00
12077;BME280;12420;42.676;23.262;2023-03-16T06:00:30;94038.72;;;2.61;100.00
12077;BME280;12420;42.676;23.262;2023-03-16T06:02:57;93968.03;;;2.26;100.00
12077;BME280;12420;42.676;23.262;2023-03-16T06:05:26;94026.13;;;2.70;100.00
12077;BME280;12420;42.676;23.262;2023-03-16T06:07:53;94037.13;;;2.92;100.00
12077;BME280;12420;42.676;23.262;2023-03-16T06:10:20;94078.91;;;2.98;100.00
12077;BME280;12420;42.676;23.262;2023-03-16T06:12:46;94018.72;;;2.87;100.00
12077;BME280;12420;42.676;23.262;2023-03-16T06:15:14;94047.59;;;2.99;100.00
12077;BME280;12420;42.676;23.262;2023-03-16T06:17:41;94056.41;;;3.32;100.00
12077;BME280;12420;42.676;23.262;2023-03-16T06:20:10;94053.22;;;3.44;100.00
12077;BME280;12420;42.676;23.262;2023-03-16T06:22:38;94054.72;;;3.51;100.00
12077;BME280;12420;42.676;23.262;2023-03-16T06:25:07;94059.94;;;3.49;100.00
12077;BME280;12420;42.676;23.262;2023-03-16T06:27:34;94064.06;;;3.16;100.00
12077;BME280;12420;42.676;23.262;2023-03-16T06:30:02;94068.09;;;3.38;100.00
12077;BME280;12420;42.676;23.262;2023-03-16T06:32:31;94033.75;;;3.20;100.00
12077;BME280;12420;42.676;23.262;2023-03-16T06:34:58;94062.91;;;3.40;100.00
12077;BME280;12420;42.676;23.262;2023-03-16T06:37:26;94043.69;;;3.23;100.00
12077;BME280;12420;42.676;23.262;2023-03-16T06:39:53;94069.63;;;3.39;100.00
12077;BME280;12420;42.676;23.262;2023-03-16T06:42:21;94027.53;;;3.19;100.00
12077;BME280;12420;42.676;23.262;2023-03-16T06:44:48;94008.88;;;3.12;100.00
12077;BME280;12420;42.676;23.262;2023-03-16T06:47:15;94101.25;;;3.57;100.00
12077;BME280;12420;42.676;23.262;2023-03-16T06:49:43;94027.91;;;2.84;100.00
12077;BME280;12420;42.676;23.262;2023-03-16T06:52:11;94103.72;;;3.55;100.00
12077;BME280;12420;42.676;23.262;2023-03-16T06:54:39;94061.34;;;3.22;100.00
12077;BME280;12420;42.676;23.262;2023-03-16T06:57:07;94032.81;;;2.69;100.00
12077;BME280;12420;42.676;23.262;2023-03-16T06:59:34;94078.19;;;3.03;100.00
12077;BME280;12420;42.676;23.262;2023-03-16T07:02:01;94112.78;;;3.12;100.00
12077;BME280;12420;42.676;23.262;2023-03-16T07:04:28;94109.81;;;3.16;100.00
12077;BME280;12420;42.676;23.262;2023-03-16T07:06:58;94117.59;;;3.34;100.00
12077;BME280;12420;42.676;23.262;2023-03-16T07:09:26;94020.13;;;2.66;100.00
12077;BME280;12420;42.676;23.262;2023-03-16T07:11:52;94107.59;;;3.25;100.00
12077;BME280;12420;42.676;23.262;2023-03-16T07:14:19;94125.72;;;3.17;100.00
12077;BME280;12420;42.676;23.262;2023-03-16T07:16:47;94048.91;;;2.61;100.00
12077;BME280;12420;42.676;23.262;2023-03-16T07:19:14;94084.31;;;2.44;100.00
12077;BME280;12420;42.676;23.262;2023-03-16T07:21:41;94106.63;;;2.74;100.00
12077;BME280;12420;42.676;23.262;2023-03-16T07:24:09;94140.25;;;3.46;100.00
12077;BME280;12420;42.676;23.262;2023-03-16T07:26:37;94079.78;;;2.67;100.00
12077;BME280;12420;42.676;23.262;2023-03-16T07:29:04;94175.03;;;3.34;100.00
12077;BME280;12420;42.676;23.262;2023-03-16T07:31:32;94013.13;;;2.53;100.00
12077;BME280;12420;42.676;23.262;2023-03-16T07:33:59;94109.88;;;3.33;100.00
12077;BME280;12420;42.676;23.262;2023-03-16T07:36:26;94114.88;;;3.45;100.00
12077;BME280;12420;42.676;23.262;2023-03-16T07:38:53;94071.28;;;3.14;100.00
12077;BME280;12420;42.676;23.262;2023-03-16T07:41:22;94130.63;;;3.67;100.00
12077;BME280;12420;42.676;23.262;2023-03-16T07:43:49;94109.19;;;3.49;100.00
12077;BME280;12420;42.676;23.262;2023-03-16T07:46:16;94114.88;;;3.40;100.00
12077;BME280;12420;42.676;23.262;2023-03-16T07:48:44;94145.28;;;3.59;100.00
12077;BME280;12420;42.676;23.262;2023-03-16T07:51:12;94163.38;;;3.39;100.00
12077;BME280;12420;42.676;23.262;2023-03-16T07:53:39;94136.56;;;3.49;100.00
12077;BME280;12420;42.676;23.262;2023-03-16T07:56:07;94139.41;;;3.23;100.00
12077;BME280;12420;42.676;23.262;2023-03-16T07:58:35;94167.88;;;3.48;100.00
12077;BME280;12420;42.676;23.262;2023-03-16T08:01:02;94164.06;;;3.29;100.00
12077;BME280;12420;42.676;23.262;2023-03-16T08:03:29;94080.28;;;2.77;100.00
12077;BME280;12420;42.676;23.262;2023-03-16T08:05:56;94140.50;;;3.42;100.00
12077;BME280;12420;42.676;23.262;2023-03-16T08:08:23;94128.19;;;3.15;100.00
12077;BME280;12420;42.676;23.262;2023-03-16T08:10:51;94150.25;;;3.00;100.00
12077;BME280;12420;42.676;23.262;2023-03-16T08:13:18;94170.22;;;3.18;100.00
12077;BME280;12420;42.676;23.262;2023-03-16T08:15:49;94177.03;;;3.34;100.00
12077;BME280;12420;42.676;23.262;2023-03-16T08:18:20;94121.00;;;2.69;100.00
12077;BME280;12420;42.676;23.262;2023-03-16T08:20:48;94178.06;;;2.93;100.00
12077;BME280;12420;42.676;23.262;2023-03-16T08:23:15;94146.47;;;2.92;100.00
12077;BME280;12420;42.676;23.262;2023-03-16T08:25:42;94095.97;;;2.39;100.00
12077;BME280;12420;42.676;23.262;2023-03-16T08:28:10;94103.50;;;2.50;100.00
12077;BME280;12420;42.676;23.262;2023-03-16T08:30:43;94092.78;;;2.46;100.00
12077;BME280;12420;42.676;23.262;2023-03-16T08:33:11;94163.00;;;3.15;100.00
12077;BME280;12420;42.676;23.262;2023-03-16T08:35:40;94209.28;;;3.24;100.00
12077;BME280;12420;42.676;23.262;2023-03-16T08:38:09;94174.75;;;3.32;100.00
12077;BME280;12420;42.676;23.262;2023-03-16T08:40:36;94201.94;;;3.41;100.00
12077;BME280;12420;42.676;23.262;2023-03-16T08:43:05;94197.69;;;3.40;100.00
12077;BME280;12420;42.676;23.262;2023-03-16T08:45:33;94097.47;;;2.83;100.00
12077;BME280;12420;42.676;23.262;2023-03-16T08:47:59;94149.88;;;3.30;100.00
12077;BME280;12420;42.676;23.262;2023-03-16T08:50:28;94115.94;;;2.99;100.00
12077;BME280;12420;42.676;23.262;2023-03-16T08:52:55;94174.25;;;3.28;100.00
12077;BME280;12420;42.676;23.262;2023-03-16T08:55:22;94200.34;;;3.83;100.00
12077;BME280;12420;42.676;23.262;2023-03-16T08:57:49;94204.31;;;3.82;100.00
12077;BME280;12420;42.676;23.262;2023-03-16T09:00:16;94132.00;;;3.29;100.00
12077;BME280;12420;42.676;23.262;2023-03-16T09:02:44;94194.31;;;3.74;100.00
12077;BME280;12420;42.676;23.262;2023-03-16T09:05:13;94176.25;;;3.33;100.00
12077;BME280;12420;42.676;23.262;2023-03-16T09:07:44;94203.88;;;3.41;100.00
12077;BME280;12420;42.676;23.262;2023-03-16T09:10:12;94165.28;;;3.28;100.00
12077;BME280;12420;42.676;23.262;2023-03-16T09:12:41;94186.81;;;3.52;100.00
12077;BME280;12420;42.676;23.262;2023-03-16T09:15:08;94076.16;;;2.93;100.00
12077;BME280;12420;42.676;23.262;2023-03-16T09:17:47;94205.56;;;3.81;100.00
12077;BME280;12420;42.676;23.262;2023-03-16T09:20:17;94202.50;;;3.62;100.00
12077;BME280;12420;42.676;23.262;2023-03-16T09:22:46;94218.75;;;3.77;100.00
12077;BME280;12420;42.676;23.262;2023-03-16T09:25:13;94218.66;;;3.55;100.00
12077;BME280;12420;42.676;23.262;2023-03-16T09:27:44;94213.81;;;3.38;100.00
12077;BME280;12420;42.676;23.262;2023-03-16T09:30:11;94243.72;;;3.47;100.00
12077;BME280;12420;42.676;23.262;2023-03-16T09:32:39;94184.97;;;3.32;100.00
12077;BME280;12420;42.676;23.262;2023-03-16T09:35:07;94214.16;;;3.52;100.00
12077;BME280;12420;42.676;23.262;2023-03-16T09:37:34;94199.94;;;3.42;100.00
12077;BME280;12420;42.676;23.262;2023-03-16T09:40:20;94217.34;;;3.44;100.00
12077;BME280;12420;42.676;23.262;2023-03-16T09:43:00;94218.94;;;3.14;100.00
12077;BME280;12420;42.676;23.262;2023-03-16T09:45:34;94187.22;;;2.90;100.00
12077;BME280;12420;42.676;23.262;2023-03-16T09:48:04;94213.75;;;2.84;100.00
12077;BME280;12420;42.676;23.262;2023-03-16T09:50:37;94254.66;;;3.04;100.00
12077;BME280;12420;42.676;23.262;2023-03-16T09:53:09;94183.81;;;3.01;100.00
12077;BME280;12420;42.676;23.262;2023-03-16T09:55:41;94231.75;;;3.39;100.00
12077;BME280;12420;42.676;23.262;2023-03-16T09:58:16;94184.56;;;3.01;100.00
12077;BME280;12420;42.676;23.262;2023-03-16T10:00:48;94220.94;;;3.67;100.00
12077;BME280;12420;42.676;23.262;2023-03-16T10:03:30;94169.47;;;3.72;100.00
12077;BME280;12420;42.676;23.262;2023-03-16T10:06:03;94193.41;;;3.99;100.00
12077;BME280;12420;42.676;23.262;2023-03-16T10:08:36;94238.69;;;3.89;100.00
12077;BME280;12420;42.676;23.262;2023-03-16T10:11:17;94243.72;;;4.07;100.00
12077;BME280;12420;42.676;23.262;2023-03-16T10:13:49;94232.78;;;4.13;100.00
12077;BME280;12420;42.676;23.262;2023-03-16T10:16:20;94212.00;;;3.73;100.00
12077;BME280;12420;42.676;23.262;2023-03-16T10:18:52;94188.91;;;3.25;100.00
12077;BME280;12420;42.676;23.262;2023-03-16T10:21:23;94198.63;;;3.26;100.00
12077;BME280;12420;42.676;23.262;2023-03-16T10:23:51;94146.53;;;2.98;100.00
12077;BME280;12420;42.676;23.262;2023-03-16T10:26:24;94131.56;;;2.88;100.00
12077;BME280;12420;42.676;23.262;2023-03-16T10:28:53;94236.72;;;3.89;100.00
12077;BME280;12420;42.676;23.262;2023-03-16T10:31:22;94232.19;;;3.86;100.00
12077;BME280;12420;42.676;23.262;2023-03-16T10:33:51;94191.16;;;3.26;100.00
12077;BME280;12420;42.676;23.262;2023-03-16T10:36:24;94212.34;;;3.37;100.00
12077;BME280;12420;42.676;23.262;2023-03-16T10:38:56;94230.69;;;3.74;100.00
12077;BME280;12420;42.676;23.262;2023-03-16T10:41:28;94124.56;;;2.87;100.00
12077;BME280;12420;42.676;23.262;2023-03-16T10:43:57;94233.78;;;3.50;100.00
12077;BME280;12420;42.676;23.262;2023-03-16T10:46:35;94214.03;;;3.29;100.00
12077;BME280;12420;42.676;23.262;2023-03-16T10:49:03;94233.56;;;3.54;100.00
12077;BME280;12420;42.676;23.262;2023-03-16T10:51:32;94150.75;;;3.04;100.00
12077;BME280;12420;42.676;23.262;2023-03-16T10:54:07;94173.16;;;3.09;100.00
12077;BME280;12420;42.676;23.262;2023-03-16T10:56:37;94229.06;;;3.51;100.00
12077;BME280;12420;42.676;23.262;2023-03-16T10:59:20;94222.09;;;3.50;100.00
12077;BME280;12420;42.676;23.262;2023-03-16T11:01:52;94238.34;;;3.64;100.00
12077;BME280;12420;42.676;23.262;2023-03-16T11:04:19;94208.06;;;3.31;100.00
12077;BME280;12420;42.676;23.262;2023-03-16T11:06:48;94242.84;;;3.73;100.00
12077;BME280;12420;42.676;23.262;2023-03-16T11:09:19;94200.09;;;3.27;100.00
12077;BME280;12420;42.676;23.262;2023-03-16T11:11:49;94232.34;;;3.60;100.00
12077;BME280;12420;42.676;23.262;2023-03-16T11:14:20;94237.34;;;3.62;100.00
12077;BME280;12420;42.676;23.262;2023-03-16T11:16:50;94235.59;;;3.59;100.00
12077;BME280;12420;42.676;23.262;2023-03-16T11:19:22;94240.00;;;3.51;100.00
12077;BME280;12420;42.676;23.262;2023-03-16T11:21:53;94239.00;;;3.48;100.00
12077;BME280;12420;42.676;23.262;2023-03-16T11:24:26;94216.09;;;3.45;100.00
12077;BME280;12420;42.676;23.262;2023-03-16T11:26:59;94235.06;;;3.55;100.00
12077;BME280;12420;42.676;23.262;2023-03-16T11:29:34;94239.03;;;3.54;100.00
12077;BME280;12420;42.676;23.262;2023-03-16T11:32:10;94217.78;;;3.32;100.00
12077;BME280;12420;42.676;23.262;2023-03-16T11:34:39;94240.84;;;3.68;100.00
12077;BME280;12420;42.676;23.262;2023-03-16T11:37:15;94218.38;;;3.53;100.00
12077;BME280;12420;42.676;23.262;2023-03-16T11:39:51;94228.09;;;3.54;100.00
12077;BME280;12420;42.676;23.262;2023-03-16T11:42:32;94224.59;;;3.53;100.00
12077;BME280;12420;42.676;23.262;2023-03-16T11:45:13;94244.53;;;3.54;100.00
12077;BME280;12420;42.676;23.262;2023-03-16T11:47:58;94272.56;;;3.48;100.00
12077;BME280;12420;42.676;23.262;2023-03-16T11:50:34;94234.69;;;3.36;100.00
12077;BME280;12420;42.676;23.262;2023-03-16T11:53:10;94240.41;;;3.32;100.00
12077;BME280;12420;42.676;23.262;2023-03-16T11:55:44;94235.63;;;3.21;100.00
12077;BME280;12420;42.676;23.262;2023-03-16T11:58:30;94221.44;;;3.17;100.00
12077;BME280;12420;42.676;23.262;2023-03-16T12:01:07;94243.31;;;3.23;100.00
12077;BME280;12420;42.676;23.262;2023-03-16T12:03:49;94224.25;;;2.91;100.00
12077;BME280;12420;42.676;23.262;2023-03-16T12:06:29;94259.94;;;3.14;100.00
12077;BME280;12420;42.676;23.262;2023-03-16T12:12:16;94241.19;;;2.95;100.00
12077;BME280;12420;42.676;23.262;2023-03-16T12:14:52;94253.06;;;3.24;100.00
12077;BME280;12420;42.676;23.262;2023-03-16T12:17:29;94260.66;;;3.09;100.00
12077;BME280;12420;42.676;23.262;2023-03-16T12:20:04;94271.09;;;3.10;100.00
12077;BME280;12420;42.676;23.262;2023-03-16T12:22:36;94246.72;;;3.07;100.00
12077;BME280;12420;42.676;23.262;2023-03-16T12:25:13;94223.63;;;2.76;100.00
12077;BME280;12420;42.676;23.262;2023-03-16T12:27:42;94269.59;;;3.09;100.00
12077;BME280;12420;42.676;23.262;2023-03-16T12:30:23;94249.13;;;2.93;100.00
12077;BME280;12420;42.676;23.262;2023-03-16T12:32:56;94231.66;;;2.85;100.00
12077;BME280;12420;42.676;23.262;2023-03-16T12:35:34;94251.16;;;2.98;100.00
12077;BME280;12420;42.676;23.262;2023-03-16T12:38:15;94270.63;;;3.12;100.00
12077;BME280;12420;42.676;23.262;2023-03-16T12:40:46;94231.84;;;2.76;100.00
12077;BME280;12420;42.676;23.262;2023-03-16T12:43:27;94286.69;;;2.98;100.00
12077;BME280;12420;42.676;23.262;2023-03-16T12:46:03;94286.06;;;3.20;100.00
12077;BME280;12420;42.676;23.262;2023-03-16T12:48:34;94232.97;;;2.95;100.00
12077;BME280;12420;42.676;23.262;2023-03-16T12:51:03;94297.59;;;3.30;100.00
12077;BME280;12420;42.676;23.262;2023-03-16T12:53:42;94224.63;;;2.47;100.00
12077;BME280;12420;42.676;23.262;2023-03-16T12:56:11;94299.50;;;2.87;100.00
12077;BME280;12420;42.676;23.262;2023-03-16T12:58:42;94209.38;;;2.08;100.00
12077;BME280;12420;42.676;23.262;2023-03-16T13:01:27;94293.44;;;2.77;100.00
12077;BME280;12420;42.676;23.262;2023-03-16T13:04:00;94290.94;;;2.73;100.00
12077;BME280;12420;42.676;23.262;2023-03-16T13:06:31;94295.75;;;2.84;100.00
12077;BME280;12420;42.676;23.262;2023-03-16T13:09:00;94280.88;;;2.85;100.00